Time;durP1;ratioP1;P1;durP2;ratioP2;P2;SDS_P1;SDS_P2;PMS_P1;PMS_P2;Temp;Humidity;BMP_temperature;BMP_pressure;BME280_temperature;BME280_humidity;BME280_pressure;Samples;Min_cycle;Max_cycle;Signal;HPM_P1;HPM_P2
2020/12/29 00:00:28;;;;;;;3.58;2.95;;;307.60;1587.20;;;;;;5051801;28;20032;-70
2020/12/29 00:02:54;;;;;;;6.82;2.88;;;307.60;1587.20;;;;;;5051660;28;20060;-69
2020/12/29 00:05:20;;;;;;;7.35;2.88;;;307.60;1587.20;;;;;;5051793;28;20045;-70
2020/12/29 00:07:53;;;;;;;4.68;2.95;;;307.60;1587.20;;;;;;5052078;28;20040;-72
2020/12/29 00:10:25;;;;;;;3.97;2.53;;;307.60;1587.20;;;;;;5052049;28;20083;-71
2020/12/29 00:12:51;;;;;;;4.93;2.70;;;307.60;1561.60;;;;;;5052412;28;20113;-71
2020/12/29 00:15:18;;;;;;;11.02;3.97;;;307.70;1561.60;;;;;;5050865;28;20036;-70
2020/12/29 00:17:44;;;;;;;4.28;2.72;;;307.70;1587.20;;;;;;5049657;28;20013;-70
2020/12/29 00:20:10;;;;;;;6.32;3.60;;;307.70;1587.20;;;;;;5051956;28;20029;-67
2020/12/29 00:22:36;;;;;;;6.40;3.22;;;307.70;1587.20;;;;;;5051999;28;20017;-70
2020/12/29 00:25:04;;;;;;;7.10;3.10;;;307.70;1587.20;;;;;;5048935;28;20028;-70
2020/12/29 00:27:30;;;;;;;6.70;3.60;;;307.70;1587.20;;;;;;5051895;28;20067;-70
2020/12/29 00:29:55;;;;;;;5.07;3.00;;;307.70;1587.20;;;;;;5050694;28;20025;-70
2020/12/29 00:32:21;;;;;;;6.68;3.45;;;307.80;1587.20;;;;;;5051882;28;20032;-69
2020/12/29 00:34:48;;;;;;;4.90;3.08;;;307.70;1587.20;;;;;;5053166;28;20039;-71
2020/12/29 00:37:14;;;;;;;4.97;3.35;;;307.70;1587.20;;;;;;5053391;28;20033;-70
2020/12/29 00:39:40;;;;;;;6.20;3.33;;;307.70;1587.20;;;;;;5053352;28;20483;-70
2020/12/29 00:42:06;;;;;;;5.43;3.58;;;307.70;1587.20;;;;;;5053455;28;20503;-70
2020/12/29 00:44:31;;;;;;;6.82;3.50;;;307.80;1587.20;;;;;;5053257;28;20065;-70
2020/12/29 00:46:57;;;;;;;5.60;3.40;;;307.80;1587.20;;;;;;5053145;28;20029;-70
2020/12/29 00:49:23;;;;;;;11.48;3.60;;;307.70;1587.20;;;;;;5053380;28;20067;-70
2020/12/29 00:51:49;;;;;;;6.55;3.40;;;307.70;1587.20;;;;;;5052977;28;20118;-72
2020/12/29 00:54:14;;;;;;;6.20;3.33;;;307.70;1587.20;;;;;;5053026;28;20033;-71
2020/12/29 00:56:40;;;;;;;4.60;3.20;;;307.70;1587.20;;;;;;5052283;28;20052;-70
2020/12/29 00:59:06;;;;;;;7.35;3.20;;;307.70;1612.80;;;;;;5051716;28;20025;-69
2020/12/29 01:01:31;;;;;;;10.13;4.45;;;307.80;1587.20;;;;;;5052964;28;20033;-69
2020/12/29 01:03:57;;;;;;;7.85;3.90;;;307.80;1612.80;;;;;;5052447;28;20028;-70
2020/12/29 01:06:27;;;;;;;5.53;3.95;;;307.80;1612.80;;;;;;5052438;28;20036;-70
2020/12/29 01:08:52;;;;;;;9.80;4.25;;;307.80;1587.20;;;;;;5052523;28;20120;-71
2020/12/29 01:11:18;;;;;;;5.85;3.80;;;307.80;1612.80;;;;;;5052175;28;20100;-71
2020/12/29 01:13:45;;;;;;;19.08;6.07;;;307.80;1612.80;;;;;;5050801;28;20074;-70
2020/12/29 01:16:11;;;;;;;22.50;12.77;;;307.80;1612.80;;;;;;5055351;28;20074;-70
2020/12/29 01:18:37;;;;;;;12.98;7.90;;;307.80;1612.80;;;;;;5055671;28;20052;-71
2020/12/29 01:21:05;;;;;;;9.45;5.50;;;307.80;1612.80;;;;;;5055866;28;20467;-71
2020/12/29 01:23:32;;;;;;;9.63;4.35;;;307.80;1612.80;;;;;;5055933;28;20498;-69
2020/12/29 01:25:58;;;;;;;7.50;4.03;;;307.80;1638.40;;;;;;5055847;28;20048;-68
2020/12/29 01:28:24;;;;;;;9.43;4.15;;;307.80;1664.00;;;;;;5055827;28;20017;-67
2020/12/29 01:30:49;;;;;;;6.72;3.92;;;307.80;1664.00;;;;;;5055805;28;20040;-66
2020/12/29 01:33:15;;;;;;;6.38;4.15;;;307.70;1689.60;;;;;;5055736;28;20025;-70
2020/12/29 01:35:41;;;;;;;12.02;6.28;;;307.80;1689.60;;;;;;5055841;28;20024;-65
2020/12/29 01:38:07;;;;;;;55.25;29.67;;;307.70;1715.20;;;;;;5055986;28;20518;-67
2020/12/29 01:40:34;;;;;;;42.72;27.08;;;307.70;1740.80;;;;;;5056422;28;20474;-66
2020/12/29 01:43:00;;;;;;;40.00;20.42;;;307.70;1766.40;;;;;;5055906;28;20468;-66
2020/12/29 01:45:26;;;;;;;44.63;27.90;;;307.60;1792.00;;;;;;5054963;28;20043;-66
2020/12/29 01:47:53;;;;;;;68.78;42.30;;;307.60;1817.60;;;;;;5054314;28;20037;-66
2020/12/29 01:50:22;;;;;;;44.00;27.90;;;307.50;1843.20;;;;;;5055690;28;20036;-65
2020/12/29 01:52:58;;;;;;;13.32;7.30;;;307.50;1843.20;;;;;;5055268;28;20029;-65
2020/12/29 01:55:25;;;;;;;6.60;3.20;;;307.50;1843.20;;;;;;5053980;28;20474;-66
2020/12/29 01:57:51;;;;;;;5.07;2.72;;;307.50;1843.20;;;;;;5055193;28;20052;-66
2020/12/29 02:00:17;;;;;;;7.47;4.63;;;307.40;1817.60;;;;;;5055475;28;20017;-66
2020/12/29 02:02:43;;;;;;;21.17;11.85;;;307.40;1843.20;;;;;;5055988;28;20348;-67
2020/12/29 02:05:09;;;;;;;9.13;5.63;;;307.40;1817.60;;;;;;5055391;28;20376;-66
2020/12/29 02:07:35;;;;;;;10.25;4.35;;;307.40;1843.20;;;;;;5053366;28;20045;-66
2020/12/29 02:10:01;;;;;;;9.00;5.07;;;307.30;1843.20;;;;;;5055150;28;20490;-68
2020/12/29 02:12:34;;;;;;;21.52;12.63;;;307.30;1843.20;;;;;;5055003;28;20045;-66
2020/12/29 02:15:03;;;;;;;64.32;41.15;;;307.20;1843.20;;;;;;5052344;28;20023;-67
2020/12/29 02:17:29;;;;;;;75.25;50.13;;;307.20;1843.20;;;;;;5055306;28;20025;-67
2020/12/29 02:19:55;;;;;;;73.95;49.63;;;307.20;1843.20;;;;;;5055479;28;20028;-67
2020/12/29 02:22:23;;;;;;;63.40;42.25;;;282.50;1817.60;;;;;;5055318;28;20029;-66
2020/12/29 02:24:50;;;;;;;30.77;15.88;;;282.50;1817.60;;;;;;5055464;28;20108;-67
2020/12/29 02:27:16;;;;;;;9.88;4.78;;;282.40;1817.60;;;;;;5054216;28;20036;-68
2020/12/29 02:29:42;;;;;;;18.67;6.20;;;282.40;1817.60;;;;;;5053906;28;20021;-67
2020/12/29 02:32:07;;;;;;;40.72;30.48;;;282.40;1817.60;;;;;;5055039;28;20032;-67
2020/12/29 02:34:36;;;;;;;44.53;27.25;;;282.30;1817.60;;;;;;5055238;28;20028;-70
2020/12/29 02:37:04;;;;;;;21.58;15.50;;;282.30;1843.20;;;;;;5055013;28;20110;-67
2020/12/29 02:39:30;;;;;;;9.90;5.07;;;282.30;1817.60;;;;;;5054697;28;20463;-70
2020/12/29 02:41:59;;;;;;;7.35;2.00;;;282.30;1817.60;;;;;;5055067;28;20025;-67
2020/12/29 02:44:24;;;;;;;3.88;1.85;;;282.20;1817.60;;;;;;5055060;28;20116;-67
2020/12/29 02:46:50;;;;;;;1.95;1.20;;;282.20;1817.60;;;;;;5053848;28;20481;-71
2020/12/29 02:49:17;;;;;;;5.05;1.40;;;282.20;1817.60;;;;;;5054801;28;20527;-67
2020/12/29 02:51:43;;;;;;;3.60;1.10;;;282.20;1817.60;;;;;;5054433;28;20029;-67
2020/12/29 02:54:13;;;;;;;2.53;0.90;;;282.20;1817.60;;;;;;5054662;28;20024;-67
2020/12/29 02:56:39;;;;;;;1.90;0.90;;;282.10;1817.60;;;;;;5054831;28;20032;-66
2020/12/29 02:59:05;;;;;;;2.22;1.08;;;282.10;1817.60;;;;;;5054729;28;20045;-67
2020/12/29 03:01:31;;;;;;;3.60;0.93;;;282.10;1817.60;;;;;;5054601;28;20032;-67
2020/12/29 03:03:57;;;;;;;1.15;0.75;;;282.10;1817.60;;;;;;5054691;28;20029;-67
2020/12/29 03:06:23;;;;;;;2.65;1.38;;;282.00;1817.60;;;;;;5054453;28;20059;-68
2020/12/29 03:08:49;;;;;;;2.22;1.00;;;282.00;1817.60;;;;;;5054613;28;20078;-67
2020/12/29 03:11:22;;;;;;;2.47;1.38;;;282.00;1817.60;;;;;;5054637;28;20032;-67
2020/12/29 03:13:48;;;;;;;3.03;1.50;;;282.00;1817.60;;;;;;5054556;28;20028;-68
2020/12/29 03:16:13;;;;;;;2.10;1.40;;;281.90;1817.60;;;;;;5054461;28;20029;-67
2020/12/29 03:18:39;;;;;;;3.38;1.17;;;281.90;1817.60;;;;;;5054488;28;20055;-68
2020/12/29 03:21:05;;;;;;;3.45;1.40;;;281.80;1817.60;;;;;;5054428;28;20031;-67
2020/12/29 03:23:31;;;;;;;4.18;1.80;;;281.80;1817.60;;;;;;5052887;28;20037;-67
2020/12/29 03:25:56;;;;;;;2.05;1.20;;;281.80;1817.60;;;;;;5054299;28;20051;-67
2020/12/29 03:28:22;;;;;;;2.13;1.40;;;281.70;1817.60;;;;;;5054197;28;20075;-67
2020/12/29 03:30:48;;;;;;;2.55;1.30;;;281.70;1817.60;;;;;;5054186;28;20029;-68
2020/12/29 03:33:14;;;;;;;2.80;1.40;;;281.60;1817.60;;;;;;5053957;28;20532;-68
2020/12/29 03:35:39;;;;;;;7.00;2.53;;;281.60;1843.20;;;;;;5054021;28;20045;-67
2020/12/29 03:38:05;;;;;;;10.32;4.70;;;281.60;1817.60;;;;;;5053805;28;20052;-67
2020/12/29 03:40:31;;;;;;;13.15;4.97;;;281.60;1843.20;;;;;;5053854;28;20033;-67
2020/12/29 03:42:57;;;;;;;9.13;5.18;;;281.60;1817.60;;;;;;5054040;28;20025;-68
2020/12/29 03:45:22;;;;;;;10.82;4.85;;;281.60;1843.20;;;;;;5053935;28;20463;-67
2020/12/29 03:47:48;;;;;;;8.68;3.90;;;256.90;1817.60;;;;;;5053726;28;20037;-67
2020/12/29 03:50:14;;;;;;;8.00;3.72;;;256.90;1792.00;;;;;;5053687;28;20032;-67
2020/12/29 03:52:39;;;;;;;7.40;3.63;;;256.90;1817.60;;;;;;5053912;28;20025;-67
2020/12/29 03:55:05;;;;;;;10.20;3.70;;;256.80;1792.00;;;;;;5053929;28;20021;-68
2020/12/29 03:57:31;;;;;;;7.93;3.75;;;256.80;1792.00;;;;;;5054045;28;20025;-67
2020/12/29 03:59:56;;;;;;;5.47;3.22;;;256.70;1792.00;;;;;;5054109;28;20518;-67
2020/12/29 04:02:22;;;;;;;7.43;4.45;;;256.70;1817.60;;;;;;5053694;28;20052;-67
2020/12/29 04:04:49;;;;;;;12.13;7.05;;;256.60;1792.00;;;;;;5053637;28;20398;-67
2020/12/29 04:07:14;;;;;;;8.82;7.72;;;256.60;1817.60;;;;;;5053481;28;20110;-67
2020/12/29 04:09:40;;;;;;;8.75;7.18;;;256.60;1817.60;;;;;;5053391;28;20037;-67
2020/12/29 04:12:06;;;;;;;6.10;5.18;;;256.60;1817.60;;;;;;5053695;28;20083;-69
2020/12/29 04:14:31;;;;;;;7.00;4.35;;;256.50;1817.60;;;;;;5053659;28;20467;-67
2020/12/29 04:16:57;;;;;;;4.55;3.90;;;256.50;1817.60;;;;;;5053603;28;20025;-67
2020/12/29 04:19:23;;;;;;;6.38;5.10;;;256.50;1817.60;;;;;;5053634;28;20025;-67
2020/12/29 04:21:48;;;;;;;7.68;5.70;;;256.50;1817.60;;;;;;5053166;28;20029;-67
2020/12/29 04:24:14;;;;;;;8.73;6.57;;;256.50;1817.60;;;;;;5053449;28;20021;-67
2020/12/29 04:26:40;;;;;;;8.82;6.22;;;256.50;1817.60;;;;;;5053504;28;20091;-67
2020/12/29 04:29:05;;;;;;;7.82;6.00;;;256.40;1817.60;;;;;;5053472;28;20044;-68
2020/12/29 04:31:31;;;;;;;12.13;5.82;;;256.40;1817.60;;;;;;5052170;28;20025;-67
2020/12/29 04:33:58;;;;;;;9.82;5.47;;;256.40;1817.60;;;;;;5053006;28;20348;-67
2020/12/29 04:36:24;;;;;;;7.57;4.47;;;256.40;1817.60;;;;;;5051292;28;20033;-67
2020/12/29 04:38:50;;;;;;;7.15;3.83;;;256.30;1817.60;;;;;;5053475;28;20070;-67
2020/12/29 04:41:16;;;;;;;7.13;3.40;;;256.30;1817.60;;;;;;5051462;28;20029;-67
2020/12/29 04:43:42;;;;;;;6.75;4.03;;;256.30;1817.60;;;;;;5053407;28;20082;-67
2020/12/29 04:46:09;;;;;;;4.78;3.33;;;256.30;1817.60;;;;;;5053320;28;20036;-67
2020/12/29 04:48:36;;;;;;;6.97;3.50;;;256.30;1817.60;;;;;;5053627;28;20032;-67
2020/12/29 04:51:07;;;;;;;6.80;4.10;;;256.30;1817.60;;;;;;5056127;28;20032;-68
2020/12/29 04:53:34;;;;;;;6.82;4.72;;;256.30;1817.60;;;;;;5057011;28;20025;-67
2020/12/29 04:56:06;;;;;;;7.63;3.78;;;256.20;1817.60;;;;;;5057152;28;20100;-67
2020/12/29 04:58:33;;;;;;;5.20;3.63;;;256.20;1817.60;;;;;;5057042;28;20064;-67
2020/12/29 05:01:06;;;;;;;7.72;3.72;;;256.20;1817.60;;;;;;5056879;28;20024;-67
2020/12/29 05:03:50;;;;;;;4.00;3.25;;;256.10;1817.60;;;;;;5057034;28;20036;-70
2020/12/29 05:06:16;;;;;;;5.15;3.55;;;256.10;1817.60;;;;;;5055390;28;20037;-67
2020/12/29 05:08:46;;;;;;;6.15;3.95;;;256.10;1817.60;;;;;;5056845;28;20028;-68
2020/12/29 05:11:13;;;;;;;8.02;3.70;;;256.10;1817.60;;;;;;5056758;28;20036;-68
2020/12/29 05:13:40;;;;;;;11.10;3.63;;;256.10;1817.60;;;;;;5056701;28;20386;-67
2020/12/29 05:16:05;;;;;;;6.80;4.10;;;256.00;1843.20;;;;;;5056622;28;20139;-68
2020/12/29 05:18:32;;;;;;;7.47;3.33;;;256.00;1817.60;;;;;;5056210;28;20484;-67
2020/12/29 05:20:58;;;;;;;7.50;3.63;;;231.30;1817.60;;;;;;5056303;28;20165;-67
2020/12/29 05:23:23;;;;;;;5.28;3.80;;;231.30;1817.60;;;;;;5056523;28;20108;-68
2020/12/29 05:25:51;;;;;;;6.10;4.30;;;231.30;1817.60;;;;;;5056582;28;20024;-68
2020/12/29 05:28:17;;;;;;;5.07;3.40;;;231.30;1817.60;;;;;;5056401;28;20040;-68
2020/12/29 05:30:43;;;;;;;4.93;3.20;;;231.30;1817.60;;;;;;5056535;28;20025;-68
2020/12/29 05:33:15;;;;;;;3.70;2.60;;;231.30;1817.60;;;;;;5056335;28;20047;-68
2020/12/29 05:35:40;;;;;;;5.10;2.63;;;231.20;1843.20;;;;;;5056148;28;20027;-68
2020/12/29 05:38:07;;;;;;;3.22;2.33;;;231.20;1817.60;;;;;;5056164;28;20029;-68
2020/12/29 05:40:34;;;;;;;9.82;3.20;;;231.20;1843.20;;;;;;5056342;28;20028;-69
2020/12/29 05:43:02;;;;;;;10.65;4.65;;;231.20;1843.20;;;;;;5056277;28;20425;-71
2020/12/29 05:45:29;;;;;;;6.35;4.40;;;231.20;1817.60;;;;;;5056304;28;20083;-68
2020/12/29 05:47:59;;;;;;;10.75;6.32;;;231.10;1843.20;;;;;;5056079;28;20060;-70
2020/12/29 05:50:27;;;;;;;12.95;8.05;;;231.20;1843.20;;;;;;5055914;28;20465;-70
2020/12/29 05:52:53;;;;;;;15.00;8.07;;;231.20;1868.80;;;;;;5054852;28;20471;-75
2020/12/29 05:55:21;;;;;;;13.23;9.60;;;231.20;1843.20;;;;;;5055759;28;20029;-67
2020/12/29 05:58:11;;;;;;;20.48;11.35;;;231.10;1843.20;;;;;;5054520;28;20021;-68
2020/12/29 06:00:38;;;;;;;12.55;8.65;;;231.10;1843.20;;;;;;5053446;28;20064;-68
2020/12/29 06:03:06;;;;;;;13.70;8.02;;;231.10;1817.60;;;;;;5054397;28;20035;-73
2020/12/29 06:05:33;;;;;;;14.30;7.32;;;231.10;1817.60;;;;;;5054602;28;20491;-68
2020/12/29 06:08:01;;;;;;;11.85;6.93;;;231.20;1817.60;;;;;;5054070;28;20148;-67
2020/12/29 06:10:28;;;;;;;10.05;6.18;;;231.20;1817.60;;;;;;5055786;28;20382;-67
2020/12/29 06:12:56;;;;;;;10.18;6.88;;;231.10;1817.60;;;;;;5055587;28;20029;-67
2020/12/29 06:15:25;;;;;;;7.68;5.13;;;231.10;1817.60;;;;;;5055696;28;20099;-70
2020/12/29 06:17:57;;;;;;;7.55;4.90;;;231.10;1817.60;;;;;;5055932;28;20037;-74
2020/12/29 06:20:29;;;;;;;7.88;4.07;;;231.10;1817.60;;;;;;5056012;28;20423;-67
2020/12/29 06:22:59;;;;;;;7.88;3.85;;;231.00;1817.60;;;;;;5054234;28;20029;-67
2020/12/29 06:25:33;;;;;;;7.18;3.85;;;231.00;1817.60;;;;;;5055298;28;20127;-74
2020/12/29 06:28:01;;;;;;;7.63;4.07;;;231.00;1817.60;;;;;;5053539;28;20068;-68
2020/12/29 06:30:27;;;;;;;6.85;4.45;;;231.00;1817.60;;;;;;5070728;28;20055;-68
2020/12/29 06:32:54;;;;;;;31.35;6.82;;;231.00;1817.60;;;;;;5055187;28;20029;-67
2020/12/29 06:35:21;;;;;;;35.67;11.13;;;231.00;1843.20;;;;;;5055135;28;20475;-67
2020/12/29 06:37:55;;;;;;;27.95;11.02;;;231.00;1843.20;;;;;;5055012;28;20086;-67
2020/12/29 06:40:22;;;;;;;23.92;11.23;;;231.00;1843.20;;;;;;5053718;28;20443;-67
2020/12/29 06:42:48;;;;;;;23.80;11.40;;;231.00;1817.60;;;;;;5055103;28;20087;-67
2020/12/29 06:45:14;;;;;;;23.85;11.68;;;231.00;1817.60;;;;;;5054884;28;20028;-67
2020/12/29 06:47:44;;;;;;;20.00;10.35;;;231.00;1843.20;;;;;;5054987;28;20033;-68
2020/12/29 06:50:31;;;;;;;16.90;8.23;;;231.00;1843.20;;;;;;5054918;28;20462;-67
2020/12/29 06:52:59;;;;;;;12.90;7.57;;;231.00;1843.20;;;;;;5054700;28;20497;-69
2020/12/29 06:55:38;;;;;;;10.48;5.45;;;231.00;1843.20;;;;;;5054756;28;20541;-67
2020/12/29 06:58:05;;;;;;;9.82;5.45;;;231.00;1843.20;;;;;;5054843;28;20108;-67
2020/12/29 07:00:33;;;;;;;21.30;7.97;;;230.90;1843.20;;;;;;5054658;28;20032;-67
2020/12/29 07:02:59;;;;;;;14.10;7.22;;;231.00;1843.20;;;;;;5054752;28;20078;-68
2020/12/29 07:05:34;;;;;;;14.82;7.07;;;231.00;1843.20;;;;;;5054332;28;20131;-67
2020/12/29 07:08:03;;;;;;;15.40;6.97;;;231.00;1843.20;;;;;;5054594;28;20046;-68
2020/12/29 07:10:35;;;;;;;19.02;9.55;;;231.00;1843.20;;;;;;5054473;28;20028;-67
2020/12/29 07:13:13;;;;;;;21.88;10.82;;;231.00;1843.20;;;;;;5054120;28;20066;-68
2020/12/29 07:15:56;;;;;;;17.38;9.15;;;231.00;1843.20;;;;;;5054361;28;20028;-67
2020/12/29 07:18:29;;;;;;;15.02;7.70;;;231.00;1843.20;;;;;;5054242;28;20036;-67
2020/12/29 07:20:58;;;;;;;19.48;8.98;;;231.00;1843.20;;;;;;5054290;28;20028;-68
2020/12/29 07:23:30;;;;;;;15.57;8.32;;;231.00;1843.20;;;;;;5054472;28;20021;-67
2020/12/29 07:25:59;;;;;;;16.58;8.57;;;231.00;1843.20;;;;;;5054382;28;20095;-68
2020/12/29 07:28:27;;;;;;;19.88;8.80;;;231.00;1868.80;;;;;;5054066;28;20036;-67
2020/12/29 07:30:53;;;;;;;20.08;10.07;;;231.00;1868.80;;;;;;5054328;28;20429;-68
2020/12/29 07:33:22;;;;;;;18.02;9.18;;;231.00;1868.80;;;;;;5054065;28;20060;-67
2020/12/29 07:35:49;;;;;;;12.82;7.10;;;231.00;1868.80;;;;;;5054020;28;20099;-68
2020/12/29 07:38:19;;;;;;;13.05;6.35;;;231.00;1868.80;;;;;;5053901;28;20029;-72
2020/12/29 07:40:44;;;;;;;11.05;5.28;;;231.00;1868.80;;;;;;5054155;28;20024;-69
2020/12/29 07:43:10;;;;;;;6.70;3.25;;;231.00;1868.80;;;;;;5053843;28;20029;-67
2020/12/29 07:45:37;;;;;;;5.30;3.22;;;231.10;1868.80;;;;;;5054104;28;20035;-68
2020/12/29 07:48:04;;;;;;;7.05;3.15;;;231.00;1868.80;;;;;;5053902;28;20068;-67
2020/12/29 07:50:31;;;;;;;4.30;2.90;;;231.10;1868.80;;;;;;5053812;28;20463;-67
2020/12/29 07:53:04;;;;;;;5.22;3.08;;;231.00;1868.80;;;;;;5053946;28;20021;-67
2020/12/29 07:55:30;;;;;;;4.50;2.53;;;231.10;1868.80;;;;;;5053919;28;20364;-67
2020/12/29 07:58:03;;;;;;;4.15;2.28;;;231.10;1868.80;;;;;;5053856;28;20036;-67
2020/12/29 08:00:29;;;;;;;3.53;2.13;;;231.10;1868.80;;;;;;5053846;28;20051;-69
2020/12/29 08:02:55;;;;;;;4.07;2.50;;;231.20;1868.80;;;;;;5053732;28;20021;-68
2020/12/29 08:05:26;;;;;;;4.68;2.80;;;231.20;1868.80;;;;;;5053457;28;20434;-67
2020/12/29 08:08:18;;;;;;;3.72;2.60;;;231.20;1868.80;;;;;;5053535;28;20107;-68
2020/12/29 08:10:44;;;;;;;4.18;2.55;;;231.20;1868.80;;;;;;5051019;28;20029;-67
2020/12/29 08:13:12;;;;;;;4.40;2.78;;;231.20;1868.80;;;;;;5053800;28;20050;-67
2020/12/29 08:15:39;;;;;;;4.90;2.47;;;231.20;1894.40;;;;;;5053614;28;20041;-68
2020/12/29 08:18:21;;;;;;;5.55;3.05;;;231.20;1894.40;;;;;;5053562;28;20028;-68
2020/12/29 08:20:50;;;;;;;3.90;2.80;;;231.30;1894.40;;;;;;5053609;28;20466;-69
2020/12/29 08:23:18;;;;;;;6.60;4.40;;;256.00;1894.40;;;;;;5053747;28;20023;-67
2020/12/29 08:25:54;;;;;;;7.60;4.18;;;256.00;1920.00;;;;;;5056262;28;20021;-68
2020/12/29 08:28:28;;;;;;;9.13;4.60;;;256.10;1920.00;;;;;;5057609;28;20039;-68
2020/12/29 08:31:01;;;;;;;6.93;4.25;;;256.20;1894.40;;;;;;5057557;28;20021;-69
2020/12/29 08:33:29;;;;;;;5.25;2.88;;;256.40;1920.00;;;;;;5057390;28;20072;-69
2020/12/29 08:36:01;;;;;;;7.50;2.85;;;256.50;1894.40;;;;;;5057556;28;20025;-71
2020/12/29 08:38:26;;;;;;;4.80;2.30;;;256.60;1894.40;;;;;;5057498;28;20049;-68
2020/12/29 08:41:10;;;;;;;4.55;2.47;;;256.80;1894.40;;;;;;5057460;28;20378;-69
2020/12/29 08:43:47;;;;;;;4.65;2.20;;;281.60;1894.40;;;;;;5057740;28;20070;-69
2020/12/29 08:46:17;;;;;;;5.60;2.63;;;281.80;1920.00;;;;;;5057256;28;20048;-68
2020/12/29 08:48:59;;;;;;;8.70;3.80;;;282.00;1920.00;;;;;;5057167;28;20116;-69
2020/12/29 08:51:28;;;;;;;6.32;3.17;;;282.10;1920.00;;;;;;5057127;28;20049;-68
2020/12/29 08:54:05;;;;;;;15.80;4.53;;;282.30;1894.40;;;;;;5057161;28;20036;-72
2020/12/29 08:56:31;;;;;;;11.75;2.92;;;282.40;1894.40;;;;;;5057204;28;20028;-68
2020/12/29 08:59:06;;;;;;;3.60;2.20;;;307.20;1920.00;;;;;;5056843;28;20044;-69
2020/12/29 09:01:34;;;;;;;5.93;1.83;;;307.40;1894.40;;;;;;5057335;28;20504;-69
2020/12/29 09:04:25;;;;;;;5.35;1.48;;;307.50;1894.40;;;;;;5056771;28;20071;-69
2020/12/29 09:07:20;;;;;;;2.03;1.60;;;307.70;1868.80;;;;;;5056776;28;20486;-69
2020/12/29 09:09:52;;;;;;;4.25;2.00;;;307.80;1843.20;;;;;;4995736;28;20481;-70
2020/12/29 09:12:19;;;;;;;3.63;1.88;;;307.90;1843.20;;;;;;4995553;28;20434;-69
2020/12/29 09:14:56;;;;;;;4.65;2.35;;;308.10;1843.20;;;;;;4995806;28;20069;-69
2020/12/29 09:17:24;;;;;;;4.65;2.25;;;332.80;1868.80;;;;;;4994999;28;20038;-69
2020/12/29 09:20:19;;;;;;;5.25;2.90;;;332.90;1817.60;;;;;;4978927;28;20027;-69
2020/12/29 09:23:12;;;;;;;3.88;1.88;;;333.00;1792.00;;;;;;4978899;28;20057;-69
2020/12/29 09:25:42;;;;;;;3.42;1.80;;;333.10;1817.60;;;;;;4995462;28;20034;-69
2020/12/29 09:28:12;;;;;;;3.90;1.77;;;333.20;1792.00;;;;;;4994993;28;20488;-69
2020/12/29 09:30:42;;;;;;;3.60;1.60;;;333.30;1740.80;;;;;;4995049;28;20043;-68
2020/12/29 09:33:08;;;;;;;4.15;1.80;;;333.40;1740.80;;;;;;4994706;28;20081;-69
2020/12/29 09:35:33;;;;;;;5.43;1.75;;;333.50;1740.80;;;;;;4994531;28;20046;-69
2020/12/29 09:38:00;;;;;;;4.30;1.80;;;333.50;1715.20;;;;;;4994786;28;20057;-68
2020/12/29 09:40:28;;;;;;;4.30;1.67;;;333.60;1715.20;;;;;;4994808;28;20405;-69
2020/12/29 09:42:54;;;;;;;3.60;2.08;;;333.70;1715.20;;;;;;4994821;28;20026;-69
2020/12/29 09:45:21;;;;;;;5.43;2.08;;;358.40;1689.60;;;;;;5001637;28;20083;-69
2020/12/29 09:47:47;;;;;;;7.25;2.80;;;358.50;1689.60;;;;;;5055535;28;20091;-69
2020/12/29 09:50:13;;;;;;;8.98;3.97;;;358.60;1664.00;;;;;;5055231;28;20025;-68
2020/12/29 09:52:39;;;;;;;5.50;3.35;;;358.70;1664.00;;;;;;5055383;28;20025;-68
2020/12/29 09:55:05;;;;;;;6.72;3.17;;;358.90;1664.00;;;;;;5056638;28;20028;-68
2020/12/29 09:57:31;;;;;;;3.80;2.10;;;358.90;1664.00;;;;;;5053815;28;20045;-68
2020/12/29 09:59:57;;;;;;;7.13;2.15;;;359.10;1638.40;;;;;;5054569;28;20430;-68
2020/12/29 10:02:23;;;;;;;6.15;2.30;;;359.20;1612.80;;;;;;5054829;28;20029;-68
2020/12/29 10:04:49;;;;;;;6.30;2.00;;;359.30;1612.80;;;;;;5052688;28;20080;-68
2020/12/29 10:07:15;;;;;;;7.35;2.25;;;359.30;1587.20;;;;;;5055231;28;20040;-69
2020/12/29 10:09:40;;;;;;;5.32;2.20;;;384.00;1587.20;;;;;;5055197;28;20021;-69
2020/12/29 10:12:06;;;;;;;4.97;2.40;;;384.20;1587.20;;;;;;5055564;28;20426;-68
2020/12/29 10:14:32;;;;;;;12.63;2.85;;;384.30;1561.60;;;;;;5055249;28;20033;-68
2020/12/29 10:16:58;;;;;;;13.15;2.72;;;384.40;1587.20;;;;;;5054598;28;20470;-68
2020/12/29 10:19:23;;;;;;;4.28;2.20;;;384.40;1536.00;;;;;;5051285;28;20033;-68
2020/12/29 10:21:54;;;;;;;4.82;2.22;;;384.50;1536.00;;;;;;5051987;28;20039;-68
2020/12/29 10:24:20;;;;;;;6.10;2.05;;;384.60;1536.00;;;;;;5054062;28;20021;-68
2020/12/29 10:26:49;;;;;;;2.20;1.42;;;384.70;1510.40;;;;;;5052104;28;20045;-68
2020/12/29 10:29:15;;;;;;;6.15;1.80;;;384.70;1510.40;;;;;;5053372;28;20036;-69
2020/12/29 10:31:40;;;;;;;6.95;3.00;;;384.80;1510.40;;;;;;5053995;28;20028;-69
2020/12/29 10:34:06;;;;;;;7.68;3.03;;;384.90;1484.80;;;;;;5054238;28;20374;-69
2020/12/29 10:36:33;;;;;;;4.45;1.90;;;409.60;1510.40;;;;;;5052724;28;20033;-71
2020/12/29 10:38:59;;;;;;;7.88;2.38;;;409.70;1510.40;;;;;;5051686;28;20466;-71
2020/12/29 10:41:29;;;;;;;8.82;2.28;;;409.80;1484.80;;;;;;5052862;28;20029;-68
2020/12/29 10:43:56;;;;;;;8.35;2.97;;;410.00;1484.80;;;;;;5049020;28;20033;-69
2020/12/29 10:46:23;;;;;;;11.32;2.90;;;410.00;1484.80;;;;;;5051483;28;20027;-69
2020/12/29 10:48:49;;;;;;;8.70;4.70;;;410.00;1459.20;;;;;;5051957;28;20107;-68
2020/12/29 10:51:19;;;;;;;10.07;2.83;;;410.00;1433.60;;;;;;5051634;28;20126;-69
2020/12/29 10:53:45;;;;;;;12.95;3.72;;;410.10;1433.60;;;;;;5050468;28;20589;-68
2020/12/29 10:56:11;;;;;;;10.75;4.30;;;410.20;1433.60;;;;;;5052750;28;20092;-69
2020/12/29 10:58:38;;;;;;;9.43;5.32;;;410.30;1433.60;;;;;;5052303;28;20025;-69
2020/12/29 11:01:04;;;;;;;6.65;3.00;;;410.30;1408.00;;;;;;5052666;28;20009;-69
2020/12/29 11:03:30;;;;;;;8.15;3.60;;;410.30;1433.60;;;;;;5052939;28;20025;-69
2020/12/29 11:05:56;;;;;;;10.35;4.95;;;410.40;1408.00;;;;;;5052123;28;20041;-69
2020/12/29 11:08:24;;;;;;;7.47;2.83;;;410.50;1408.00;;;;;;5053524;28;20058;-69
2020/12/29 11:10:50;;;;;;;8.25;2.50;;;410.50;1382.40;;;;;;5053970;28;20029;-69
2020/12/29 11:13:16;;;;;;;7.45;2.80;;;410.50;1382.40;;;;;;5053226;28;20362;-69
2020/12/29 11:15:41;;;;;;;17.38;10.00;;;410.50;1382.40;;;;;;5053464;28;20032;-69
2020/12/29 11:18:07;;;;;;;10.70;5.38;;;410.50;1382.40;;;;;;5053564;28;20059;-69
2020/12/29 11:20:33;;;;;;;15.10;7.80;;;435.20;1382.40;;;;;;5052789;28;20074;-69
2020/12/29 11:23:00;;;;;;;12.85;6.65;;;435.20;1408.00;;;;;;5053545;28;20040;-69
2020/12/29 11:25:25;;;;;;;25.05;10.63;;;435.20;1382.40;;;;;;5053751;28;20029;-69
2020/12/29 11:27:51;;;;;;;24.20;11.60;;;435.20;1382.40;;;;;;5052853;28;20041;-69
2020/12/29 11:30:17;;;;;;;13.23;7.40;;;435.20;1382.40;;;;;;5053603;28;20036;-69
2020/12/29 11:32:43;;;;;;;12.75;5.97;;;435.20;1382.40;;;;;;5053261;28;20029;-69
2020/12/29 11:35:08;;;;;;;26.10;14.23;;;435.20;1382.40;;;;;;5052760;28;20017;-68
2020/12/29 11:37:34;;;;;;;26.48;13.05;;;435.20;1408.00;;;;;;5053139;28;20033;-72
2020/12/29 11:40:00;;;;;;;18.80;7.40;;;435.20;1408.00;;;;;;5053074;28;20071;-71
2020/12/29 11:42:28;;;;;;;26.15;12.57;;;435.20;1382.40;;;;;;5052761;28;20025;-68
2020/12/29 11:44:54;;;;;;;12.88;5.45;;;435.20;1382.40;;;;;;5052940;28;20025;-69
2020/12/29 11:47:20;;;;;;;6.47;3.63;;;435.20;1408.00;;;;;;5053016;28;20115;-68
2020/12/29 11:49:46;;;;;;;8.00;3.95;;;435.20;1382.40;;;;;;5052624;28;20108;-69
2020/12/29 11:52:11;;;;;;;18.85;4.90;;;435.20;1382.40;;;;;;5051187;28;20083;-68
2020/12/29 11:54:37;;;;;;;12.45;4.32;;;435.20;1408.00;;;;;;5052812;28;20031;-68
2020/12/29 11:57:03;;;;;;;13.52;5.53;;;435.20;1382.40;;;;;;5052635;28;20036;-68
2020/12/29 11:59:29;;;;;;;16.98;5.45;;;410.50;1382.40;;;;;;5052919;28;20045;-69
2020/12/29 12:01:55;;;;;;;10.52;4.90;;;410.50;1382.40;;;;;;5052349;28;20031;-69
2020/12/29 12:04:20;;;;;;;15.70;8.25;;;410.50;1382.40;;;;;;5050995;28;20127;-69
2020/12/29 12:06:47;;;;;;;13.70;5.60;;;435.20;1382.40;;;;;;5052587;28;20029;-69
2020/12/29 12:09:13;;;;;;;22.77;9.10;;;410.50;1408.00;;;;;;5051087;28;20116;-66
2020/12/29 12:11:39;;;;;;;22.15;10.70;;;435.20;1484.80;;;;;;5052455;28;20147;-64
2020/12/29 12:14:05;;;;;;;32.15;13.43;;;435.30;1459.20;;;;;;5052889;28;20029;-64
2020/12/29 12:16:37;;;;;;;50.53;21.63;;;435.30;1408.00;;;;;;5052680;28;20470;-64